• Join FlightAware (Why Join?)
  • Login
  • US Flag 
07:55PM EDT


 

Airport Tracker/Info


-or-


 

Live Flight TrackerFlight Track Log ✈ BOE501 ✈ 09-Apr-2010 ✈ KMWH - KMWH

Flight Track Log - Related Links

Times and Time Zones

All times are in EDT time to prevent confusion due to time zone crossing. See the BOE501 flight status page for this flight to view local times or setup timezone preferences in your user account.

Time Position Orientation Groundspeed Altitude Reporting Facility
EDT Latitude Longitude Course Direction KTS MPH feet Rate Location/Type
04:03PM 47.2328 -119.3310 334° Northwest 30,000  Level Seattle Center
04:04PM 47.2744 -119.3610 244° Southwest 199 229 3,100 -12,300 Descending D
04:05PM 47.2478 -119.4410 221° Southwest 154 177 5,400 2,280 Climbing C
04:06PM 47.2000 -119.5020 219° Southwest 177 204 7,700 2,220 Climbing C
04:07PM 47.1461 -119.5660 218° Southwest 215 247 9,900 2,220 Climbing C
04:08PM 47.0881 -119.6330 218° Southwest 249 287 12,200 2,460 Climbing C
04:09PM 47.0256 -119.7040 218° Southwest 269 310 14,900 2,400 Climbing C
04:10PM 46.9653 -119.7740 187° South 281 323 17,100 1,920 Climbing C
04:11PM 46.8778 -119.7890 127° Southeast 291 335 18,800 1,680 Climbing C
04:12PM 46.8194 -119.6770 119° Southeast 262 302 20,500 1,740 Climbing C
04:13PM 46.7653 -119.5340 116° Southeast 306 352 22,300 1,560 Climbing C
04:14PM 46.7147 -119.3860 118° Southeast 359 413 23,700 1,440 Climbing C
04:15PM 46.6600 -119.2360 116° Southeast 395 455 25,200 1,560 Climbing C
04:16PM 46.6072 -119.0820 115° Southeast 414 476 26,900 1,440 Climbing C
04:17PM 46.5542 -118.9200 117° Southeast 427 491 28,100 1,080 Climbing C
04:18PM 46.5008 -118.7700 116° Southeast 447 514 29,100 1,140 Climbing C
04:19PM 46.4453 -118.6080 115° Southeast 452 520 30,400 900 Climbing C
04:20PM 46.3914 -118.4440 117° Southeast 447 514 31,000 300 Climbing C
04:21PM 46.3331 -118.2800 110° East 447 514 31,000  Level
04:22PM 46.2914 -118.1160 118° Southeast 442 509 31,100 -60 Climbing C
04:23PM 46.2328 -117.9560 118° Southeast 442 509 30,900 -120 Descending D
04:24PM 46.1739 -117.7990 120° Southeast 442 509 30,900  Level
04:25PM 46.1106 -117.6390 118° Southeast 447 514 30,900  Level
04:26PM 46.0536 -117.4830 118° Southeast 452 520 30,900  Level
04:27PM 45.9897 -117.3120 119° Southeast 460 529 30,900  Level
04:28PM 45.9278 -117.1510 119° Southeast 460 529 31,000 120 Climbing C
04:29PM 45.8633 -116.9840 123° Southeast 465 535 31,200  Climbing C
04:30PM 45.7950 -116.8320 80° East 465 535 31,100 -60 Descending D
04:31PM 45.8158 -116.6680 North 419 482 31,100  Level
04:32PM 45.9300 -116.6580 297° West 301 346 31,100  Level
04:33PM 45.9797 -116.7990 294° West 224 258 31,100  Level
04:34PM 46.0272 -116.9550 293° West 322 371 31,100 -60 Level
04:35PM 46.0725 -117.1080 292° West 381 438 31,000 -120 Descending D
04:36PM 46.1156 -117.2590 294° West 404 465 30,900  Descending D
04:37PM 46.1603 -117.4070 294° West 409 471 31,000  Climbing C
04:38PM 46.2069 -117.5610 294° West 409 471 31,000  Level
04:39PM 46.2536 -117.7120 294° West 414 476 31,000  Level
04:40PM 46.3000 -117.8630 294° West 409 471 31,000  Level
04:41PM 46.3461 -118.0120 291° West 409 471 31,000  Level
04:42PM 46.3856 -118.1610 287° West 415 478 31,000  Level
04:43PM 46.4211 -118.3260 288° West 410 472 31,000  Level
04:44PM 46.4564 -118.4820 288° West 410 472 31,000  Level